createdAt,value
2023-04-11T00:01:23.654Z,0.63
2023-04-11T00:03:50.849Z,0.60
2023-04-11T00:08:44.626Z,0.50
2023-04-11T00:11:11.392Z,0.70
2023-04-11T00:13:38.412Z,0.80
2023-04-11T00:16:08.766Z,0.77
2023-04-11T00:18:37.732Z,0.80
2023-04-11T00:21:05.213Z,0.50
2023-04-11T00:25:58.643Z,0.60
2023-04-11T00:28:25.494Z,0.60
2023-04-11T00:30:52.294Z,0.60
2023-04-11T00:33:19.109Z,0.60
2023-04-11T00:35:46.011Z,0.80
2023-04-11T00:38:12.918Z,0.65
2023-04-11T00:40:40.579Z,0.60
2023-04-11T00:43:07.360Z,0.70
2023-04-11T00:45:34.453Z,0.60
2023-04-11T00:48:01.729Z,0.60
2023-04-11T00:50:28.700Z,0.70
2023-04-11T00:52:56.829Z,0.60
2023-04-11T00:55:24.171Z,0.60
2023-04-11T00:57:55.215Z,0.80
2023-04-11T01:00:22.794Z,0.57
2023-04-11T01:02:50.061Z,0.50
2023-04-11T01:05:19.017Z,0.80
2023-04-11T01:07:49.573Z,0.60
2023-04-11T01:10:17.548Z,0.65
2023-04-11T01:12:46.391Z,0.80
2023-04-11T01:15:13.241Z,0.50
2023-04-11T01:17:41.647Z,0.75
2023-04-11T01:20:10.262Z,0.80
2023-04-11T01:22:38.541Z,0.80
2023-04-11T01:25:05.723Z,0.70
2023-04-11T01:27:34.117Z,0.73
2023-04-11T01:30:01.535Z,0.70
2023-04-11T01:32:28.697Z,0.80
2023-04-11T01:34:58.102Z,0.70
2023-04-11T01:37:25.521Z,0.80
2023-04-11T01:42:21.792Z,0.90
2023-04-11T01:44:53.313Z,0.60
2023-04-11T01:47:20.093Z,0.70
2023-04-11T01:49:46.869Z,0.60
2023-04-11T01:52:14.003Z,0.88
2023-04-11T01:54:41.665Z,1.00
2023-04-11T01:57:09.555Z,0.60
2023-04-11T01:59:36.359Z,0.90
2023-04-11T02:02:03.265Z,0.70
2023-04-11T02:04:32.087Z,0.82
2023-04-11T02:06:58.874Z,0.70
2023-04-11T02:09:25.648Z,0.80
2023-04-11T02:11:52.444Z,0.88
2023-04-11T02:14:20.427Z,0.82
2023-04-11T02:16:55.066Z,0.70
2023-04-11T02:19:23.275Z,1.00
2023-04-11T02:21:51.911Z,0.80
2023-04-11T02:26:46.202Z,0.60
2023-04-11T02:29:12.970Z,0.70
2023-04-11T02:31:39.919Z,0.80
2023-04-11T02:34:06.791Z,1.08
2023-04-11T02:36:35.090Z,1.20
2023-04-11T02:39:01.916Z,0.77
2023-04-11T02:41:28.692Z,1.70
2023-04-11T02:43:55.463Z,0.80
2023-04-11T02:46:22.537Z,1.25
2023-04-11T02:48:49.469Z,1.25
2023-04-11T02:51:16.314Z,1.33
2023-04-11T02:53:43.120Z,1.10
2023-04-11T02:56:11.962Z,1.13
2023-04-11T02:58:41.507Z,0.95
2023-04-11T03:01:11.154Z,1.00
2023-04-11T03:03:41.435Z,1.13
2023-04-11T03:06:09.406Z,1.45
2023-04-11T03:08:38.056Z,1.00
2023-04-11T03:11:06.236Z,1.02
2023-04-11T03:13:33.594Z,1.20
2023-04-11T03:16:00.493Z,0.90
2023-04-11T03:18:30.276Z,1.10
2023-04-11T03:20:59.186Z,1.08
2023-04-11T03:23:26.764Z,1.33
2023-04-11T03:25:54.141Z,1.40
2023-04-11T03:30:48.745Z,0.90
2023-04-11T03:33:19.553Z,0.82
2023-04-11T03:35:46.352Z,0.80
2023-04-11T03:38:13.238Z,0.85
2023-04-11T03:40:40.315Z,0.73
2023-04-11T03:43:17.125Z,0.80
2023-04-11T03:45:45.248Z,1.08
2023-04-11T03:48:20.621Z,1.00
2023-04-11T03:50:55.724Z,1.20
2023-04-11T03:53:28.001Z,1.05
2023-04-11T03:55:59.753Z,1.27
2023-04-11T03:58:33.035Z,1.00
2023-04-11T04:01:00.197Z,1.30
2023-04-11T04:05:55.646Z,0.95
2023-04-11T04:08:23.341Z,0.95
2023-04-11T04:10:51.530Z,0.88
2023-04-11T04:13:18.974Z,1.25
2023-04-11T04:15:52.472Z,1.13
2023-04-11T04:18:23.787Z,1.13
2023-04-11T04:23:19.630Z,0.95
2023-04-11T04:26:16.062Z,1.10
2023-04-11T04:28:47.824Z,1.00
2023-04-11T04:31:22.265Z,1.38
2023-04-11T04:33:50.026Z,1.48
2023-04-11T04:36:21.675Z,1.20
2023-04-11T04:38:50.343Z,1.05
2023-04-11T04:41:21.963Z,0.93
2023-04-11T04:43:57.990Z,1.08
2023-04-11T04:46:39.125Z,0.93
2023-04-11T04:49:07.339Z,1.40
2023-04-11T04:51:36.610Z,1.40
2023-04-11T04:54:04.859Z,1.48
2023-04-11T04:56:32.043Z,1.00
2023-04-11T04:58:59.262Z,1.55
2023-04-11T05:01:28.018Z,1.55
2023-04-11T05:03:59.254Z,0.70
2023-04-11T05:06:40.609Z,1.25
2023-04-11T05:09:07.452Z,1.00
2023-04-11T05:11:34.542Z,1.45
2023-04-11T05:14:01.395Z,0.98
2023-04-11T05:16:28.327Z,1.83
2023-04-11T05:18:56.645Z,1.05
2023-04-11T05:21:24.057Z,1.40
2023-04-11T05:23:52.702Z,1.23
2023-04-11T05:26:19.578Z,1.08
2023-04-11T05:28:46.855Z,1.02
2023-04-11T05:31:17.868Z,1.48
2023-04-11T05:33:46.057Z,1.27
2023-04-11T05:36:14.361Z,1.30
2023-04-11T05:38:42.597Z,1.05
2023-04-11T05:41:10.637Z,1.38
2023-04-11T05:43:37.745Z,1.27
2023-04-11T05:46:05.451Z,1.40
2023-04-11T05:48:32.229Z,1.10
2023-04-11T05:50:59.885Z,1.40
2023-04-11T05:53:26.661Z,1.27
2023-04-11T05:55:53.470Z,1.40
2023-04-11T05:58:20.289Z,1.10
2023-04-11T06:00:47.058Z,1.08
2023-04-11T06:03:14.104Z,1.10
2023-04-11T06:05:41.294Z,1.00
2023-04-11T06:08:08.757Z,1.30
2023-04-11T06:10:35.936Z,1.30
2023-04-11T06:13:07.593Z,0.80
2023-04-11T06:15:34.502Z,1.17
2023-04-11T06:18:01.400Z,1.40
2023-04-11T06:20:28.526Z,0.73
2023-04-11T06:22:55.741Z,1.20
2023-04-11T06:25:24.330Z,1.15
2023-04-11T06:27:51.529Z,0.93
2023-04-11T06:30:18.480Z,1.40
2023-04-11T06:32:45.715Z,1.40
2023-04-11T06:35:12.600Z,1.35
2023-04-11T06:37:39.469Z,0.85
2023-04-11T06:40:07.050Z,1.00
2023-04-11T06:45:01.354Z,0.90
2023-04-11T06:47:28.265Z,1.17
2023-04-11T06:49:55.573Z,1.00
2023-04-11T06:52:22.500Z,0.90
2023-04-11T06:54:49.409Z,1.00
2023-04-11T06:57:16.238Z,1.17
2023-04-11T06:59:42.984Z,0.80
2023-04-11T07:02:09.932Z,1.27
2023-04-11T07:04:37.088Z,0.98
2023-04-11T07:07:04.412Z,1.00
2023-04-11T07:09:31.852Z,1.20
2023-04-11T07:14:26.180Z,0.93
2023-04-11T07:19:19.650Z,1.05
2023-04-11T07:21:46.429Z,1.08
2023-04-11T07:24:13.270Z,0.77
2023-04-11T07:26:42.237Z,1.17
2023-04-11T07:29:11.620Z,0.80
2023-04-11T07:31:40.662Z,1.08
2023-04-11T07:36:34.826Z,1.13
2023-04-11T07:39:02.129Z,1.20
2023-04-11T07:41:28.964Z,0.98
2023-04-11T07:43:55.913Z,1.02
2023-04-11T07:46:22.878Z,0.80
2023-04-11T07:48:49.649Z,0.90
2023-04-11T07:51:17.085Z,0.82
2023-04-11T07:56:10.928Z,1.23
2023-04-11T07:58:37.717Z,0.95
2023-04-11T08:01:05.457Z,1.08
2023-04-11T08:03:32.558Z,0.70
2023-04-11T08:05:59.588Z,0.70
2023-04-11T08:08:26.402Z,0.73
2023-04-11T08:10:53.240Z,0.80
2023-04-11T08:13:20.162Z,0.70
2023-04-11T08:15:46.991Z,0.90
2023-04-11T08:18:13.871Z,0.70
2023-04-11T08:20:40.872Z,0.50
2023-04-11T08:23:09.459Z,0.82
2023-04-11T08:25:36.751Z,0.80
2023-04-11T08:28:05.043Z,0.70
2023-04-11T08:30:32.181Z,0.93
2023-04-11T08:32:59.561Z,1.00
2023-04-11T08:35:26.607Z,1.02
2023-04-11T08:37:54.069Z,0.90
2023-04-11T08:40:21.179Z,0.73
2023-04-11T08:42:48.566Z,0.98
2023-04-11T08:45:15.615Z,0.65
2023-04-11T08:47:44.854Z,0.85
2023-04-11T08:50:12.446Z,0.75
2023-04-11T08:52:39.972Z,0.90
2023-04-11T08:55:07.397Z,1.08
2023-04-11T08:57:34.797Z,0.80
2023-04-11T09:00:18.865Z,0.73
2023-04-11T09:02:56.216Z,0.75
2023-04-11T09:07:59.392Z,0.73
2023-04-11T09:10:27.039Z,0.88
2023-04-11T09:12:55.465Z,0.70
2023-04-11T09:15:27.712Z,0.80
2023-04-11T09:17:57.600Z,0.70
2023-04-11T09:20:27.096Z,0.80
2023-04-11T09:22:54.453Z,0.88
2023-04-11T09:25:22.982Z,0.90
2023-04-11T09:28:06.548Z,0.60
2023-04-11T09:30:33.658Z,0.60
2023-04-11T09:33:19.266Z,0.80
2023-04-11T09:35:48.532Z,0.63
2023-04-11T09:38:31.775Z,0.93
2023-04-11T09:41:03.657Z,0.70
2023-04-11T09:43:52.776Z,1.02
2023-04-11T09:46:21.057Z,0.80
2023-04-11T09:48:50.435Z,0.80
2023-04-11T09:51:34.306Z,0.75
2023-04-11T09:54:04.092Z,0.85
2023-04-11T09:56:31.976Z,0.77
2023-04-11T10:01:27.110Z,0.73
2023-04-11T10:03:55.883Z,0.60
2023-04-11T10:06:33.858Z,0.70
2023-04-11T10:09:14.895Z,0.75
2023-04-11T10:11:45.375Z,0.70
2023-04-11T10:14:38.079Z,0.60
2023-04-11T10:17:34.329Z,0.60
2023-04-11T10:20:01.623Z,0.77
2023-04-11T10:22:51.882Z,0.65
2023-04-11T10:25:24.641Z,0.75
2023-04-11T10:28:06.048Z,0.93
2023-04-11T10:31:00.705Z,0.70
2023-04-11T10:33:28.012Z,0.60
2023-04-11T10:36:11.355Z,0.60
2023-04-11T10:38:41.256Z,0.60
2023-04-11T10:41:42.349Z,0.80
2023-04-11T10:44:14.761Z,0.82
2023-04-11T10:46:46.701Z,1.00
2023-04-11T10:49:32.161Z,0.65
2023-04-11T10:52:21.927Z,1.00
2023-04-11T10:54:50.723Z,0.88
2023-04-11T10:57:17.693Z,0.55
2023-04-11T10:59:44.410Z,0.60
2023-04-11T11:02:11.848Z,0.60
2023-04-11T11:04:39.752Z,0.82
2023-04-11T11:07:12.132Z,0.93
2023-04-11T11:09:39.398Z,0.60
2023-04-11T11:12:12.657Z,0.60
2023-04-11T11:14:42.103Z,0.50
2023-04-11T11:17:10.840Z,0.88
2023-04-11T11:19:42.778Z,0.93
2023-04-11T11:22:15.286Z,0.77
2023-04-11T11:24:42.141Z,0.70
2023-04-11T11:27:22.720Z,0.60
2023-04-11T11:29:50.646Z,0.80
2023-04-11T11:32:28.664Z,0.80
2023-04-11T11:34:57.334Z,0.57
2023-04-11T11:37:24.179Z,0.93
2023-04-11T11:39:51.550Z,1.15
2023-04-11T11:44:45.362Z,0.75
2023-04-11T11:47:15.222Z,0.77
2023-04-11T11:49:50.966Z,0.90
2023-04-11T11:52:39.573Z,0.60
2023-04-11T11:55:11.343Z,0.60
2023-04-11T11:57:47.315Z,0.60
2023-04-11T12:00:15.787Z,0.60
2023-04-11T12:02:44.367Z,0.80
2023-04-11T12:05:12.211Z,1.00
2023-04-11T12:07:39.805Z,0.60
2023-04-11T12:10:09.280Z,0.80
2023-04-11T12:12:39.990Z,0.88
2023-04-11T12:15:14.166Z,0.80
2023-04-11T12:17:41.152Z,0.70
2023-04-11T12:20:10.482Z,0.80
2023-04-11T12:22:38.060Z,0.68
2023-04-11T12:25:09.732Z,0.70
2023-04-11T12:27:41.658Z,0.60
2023-04-11T12:30:10.055Z,0.80
2023-04-11T12:32:37.417Z,0.65
2023-04-11T12:37:33.049Z,0.93
2023-04-11T12:40:00.530Z,0.57
2023-04-11T12:42:27.723Z,0.60
2023-04-11T12:44:54.744Z,0.70
2023-04-11T12:47:21.709Z,0.65
2023-04-11T12:49:48.595Z,0.63
2023-04-11T12:52:15.576Z,0.60
2023-04-11T12:54:42.368Z,0.57
2023-04-11T12:57:12.287Z,0.75
2023-04-11T12:59:39.512Z,0.60
2023-04-11T13:02:07.778Z,0.80
2023-04-11T13:04:34.887Z,0.70
2023-04-11T13:07:01.922Z,0.70
2023-04-11T13:09:29.644Z,0.57
2023-04-11T13:11:56.829Z,0.60
2023-04-11T13:14:23.733Z,0.70
2023-04-11T13:16:50.641Z,0.80
2023-04-11T13:19:17.442Z,0.47
2023-04-11T13:21:44.272Z,0.60
2023-04-11T13:24:11.160Z,0.63
2023-04-11T13:26:39.312Z,0.73
2023-04-11T13:29:06.731Z,0.50
2023-04-11T13:34:01.616Z,0.57
2023-04-11T13:36:28.695Z,0.50
2023-04-11T13:38:56.764Z,0.65
2023-04-11T13:41:24.525Z,0.55
2023-04-11T13:43:52.188Z,0.60
2023-04-11T13:46:19.389Z,0.57
2023-04-11T13:48:46.285Z,0.60
2023-04-11T13:51:13.530Z,0.60
2023-04-11T13:56:07.844Z,0.52
2023-04-11T13:58:35.124Z,0.57
2023-04-11T14:01:02.006Z,0.52
2023-04-11T14:03:33.159Z,0.70
2023-04-11T14:06:01.576Z,0.50
2023-04-11T14:08:29.313Z,0.60
2023-04-11T14:10:56.367Z,0.60
2023-04-11T14:13:23.414Z,0.60
2023-04-11T14:16:04.944Z,0.60
2023-04-11T14:18:34.628Z,0.68
2023-04-11T14:21:01.777Z,0.52
2023-04-11T14:23:29.278Z,0.40
2023-04-11T14:25:56.862Z,0.52
2023-04-11T14:28:26.554Z,0.45
2023-04-11T14:30:54.114Z,0.52
2023-04-11T14:33:21.510Z,0.70
2023-04-11T14:35:48.546Z,0.50
2023-04-11T14:38:15.847Z,0.55
2023-04-11T14:40:44.500Z,0.63
2023-04-11T14:43:11.423Z,0.40
2023-04-11T14:45:38.408Z,0.57
2023-04-11T14:48:05.484Z,0.57
2023-04-11T14:50:33.728Z,0.57
2023-04-11T14:53:00.987Z,0.63
2023-04-11T14:55:27.943Z,0.60
2023-04-11T14:57:56.438Z,0.68
2023-04-11T15:00:24.878Z,0.47
2023-04-11T15:02:54.206Z,0.40
2023-04-11T15:05:22.647Z,0.70
2023-04-11T15:07:51.576Z,0.65
2023-04-11T15:10:23.076Z,0.50
2023-04-11T15:12:50.315Z,0.52
2023-04-11T15:15:17.442Z,0.55
2023-04-11T15:17:49.441Z,0.50
2023-04-11T15:20:16.825Z,0.50
2023-04-11T15:22:45.604Z,0.40
2023-04-11T15:25:16.448Z,0.47
2023-04-11T15:27:43.796Z,0.40
2023-04-11T15:30:11.497Z,0.40
2023-04-11T15:32:43.609Z,0.50
2023-04-11T15:35:10.782Z,0.57
2023-04-11T15:37:37.581Z,0.60
2023-04-11T15:40:09.264Z,0.50
2023-04-11T15:42:37.448Z,0.60
2023-04-11T15:45:05.095Z,0.85
2023-04-11T15:47:31.959Z,0.50
2023-04-11T15:50:01.794Z,0.60
2023-04-11T15:52:28.591Z,0.55
2023-04-11T15:54:56.132Z,0.60
2023-04-11T15:57:22.957Z,0.47
2023-04-11T15:59:49.725Z,0.50
2023-04-11T16:02:16.811Z,0.60
2023-04-11T16:04:46.339Z,0.80
2023-04-11T16:07:18.171Z,0.57
2023-04-11T16:09:45.148Z,0.50
2023-04-11T16:12:11.960Z,0.65
2023-04-11T16:14:38.723Z,0.40
2023-04-11T16:17:05.705Z,0.50
2023-04-11T16:19:32.486Z,0.80
2023-04-11T16:21:59.274Z,0.50
2023-04-11T16:24:28.771Z,0.65
2023-04-11T16:26:57.121Z,0.50
2023-04-11T16:29:24.861Z,0.55
2023-04-11T16:31:51.755Z,0.70
2023-04-11T16:34:18.603Z,0.70
2023-04-11T16:36:45.769Z,0.68
2023-04-11T16:39:12.607Z,0.82
2023-04-11T16:41:39.383Z,0.60
2023-04-11T16:44:11.089Z,0.65
2023-04-11T16:46:42.096Z,0.73
2023-04-11T16:49:09.139Z,0.68
2023-04-11T16:51:37.011Z,0.63
2023-04-11T16:54:09.289Z,0.70
2023-04-11T16:56:36.814Z,0.60
2023-04-11T16:59:04.584Z,0.80
2023-04-11T17:01:31.800Z,0.60
2023-04-11T17:03:59.016Z,0.70
2023-04-11T17:06:27.132Z,0.52
2023-04-11T17:08:54.244Z,0.50
2023-04-11T17:11:21.729Z,0.90
2023-04-11T17:13:49.375Z,0.73
2023-04-11T17:16:17.647Z,0.80
2023-04-11T17:18:44.478Z,0.63
2023-04-11T17:21:11.289Z,0.60
2023-04-11T17:23:43.079Z,0.70
2023-04-11T17:26:11.529Z,0.73
2023-04-11T17:28:39.557Z,0.93
2023-04-11T17:31:14.055Z,0.70
2023-04-11T17:33:41.699Z,0.60
2023-04-11T17:36:09.355Z,0.57
2023-04-11T17:38:37.705Z,0.80
2023-04-11T17:41:14.331Z,0.60
2023-04-11T17:43:42.517Z,0.63
2023-04-11T17:46:09.583Z,0.65
2023-04-11T17:48:36.781Z,0.90
2023-04-11T17:51:05.454Z,0.70
2023-04-11T17:53:32.797Z,0.60
2023-04-11T17:56:04.396Z,0.90
2023-04-11T17:58:31.745Z,0.75
2023-04-11T18:03:26.311Z,0.50
2023-04-11T18:05:54.457Z,0.52
2023-04-11T18:08:28.774Z,0.75
2023-04-11T18:11:00.432Z,0.50
2023-04-11T18:15:54.390Z,0.75
2023-04-11T18:18:21.561Z,0.75
2023-04-11T18:20:48.410Z,0.68
2023-04-11T18:23:15.216Z,0.70
2023-04-11T18:25:41.996Z,0.70
2023-04-11T18:28:08.805Z,0.80
2023-04-11T18:30:35.838Z,0.80
2023-04-11T18:33:04.240Z,0.68
2023-04-11T18:35:31.423Z,0.80
2023-04-11T18:37:58.283Z,0.75
2023-04-11T18:40:25.362Z,0.98
2023-04-11T18:42:54.035Z,0.60
2023-04-11T18:45:22.273Z,0.85
2023-04-11T18:47:49.326Z,0.75
2023-04-11T18:50:17.345Z,0.80
2023-04-11T18:52:45.595Z,0.75
2023-04-11T18:55:14.376Z,0.68
2023-04-11T18:57:42.866Z,0.80
2023-04-11T19:00:18.406Z,0.63
2023-04-11T19:02:48.095Z,0.80
2023-04-11T19:05:15.925Z,0.90
2023-04-11T19:07:43.295Z,0.70
2023-04-11T19:10:11.645Z,1.13
2023-04-11T19:12:38.956Z,0.68
2023-04-11T19:15:10.341Z,0.77
2023-04-11T19:17:38.728Z,0.80
2023-04-11T19:20:07.114Z,0.88
2023-04-11T19:22:35.721Z,0.80
2023-04-11T19:25:02.522Z,0.80
2023-04-11T19:27:29.672Z,0.90
2023-04-11T19:32:24.176Z,0.50
2023-04-11T19:34:51.328Z,0.85
2023-04-11T19:37:19.432Z,0.70
2023-04-11T19:39:46.479Z,0.90
2023-04-11T19:42:14.291Z,0.70
2023-04-11T19:44:41.165Z,0.70
2023-04-11T19:47:08.350Z,0.60
2023-04-11T19:49:35.526Z,0.73
2023-04-11T19:52:05.173Z,0.60
2023-04-11T19:54:33.430Z,1.10
2023-04-11T19:57:00.594Z,0.70
2023-04-11T19:59:28.363Z,0.80
2023-04-11T20:01:55.399Z,0.80
2023-04-11T20:04:22.383Z,0.80
2023-04-11T20:06:50.778Z,0.77
2023-04-11T20:09:20.316Z,0.80
2023-04-11T20:11:49.499Z,0.60
2023-04-11T20:14:16.471Z,0.77
2023-04-11T20:16:43.589Z,0.70
2023-04-11T20:19:12.311Z,0.70
2023-04-11T20:21:39.174Z,0.93
2023-04-11T20:24:06.180Z,0.70
2023-04-11T20:26:32.973Z,0.95
2023-04-11T20:28:59.965Z,0.70
2023-04-11T20:31:27.149Z,0.70
2023-04-11T20:38:48.640Z,0.90
2023-04-11T20:41:18.876Z,0.85
2023-04-11T20:43:45.728Z,1.13
2023-04-11T20:46:13.608Z,0.90
2023-04-11T20:48:42.822Z,0.80
2023-04-11T20:51:09.711Z,0.88
2023-04-11T20:53:36.645Z,0.60
2023-04-11T20:56:04.637Z,0.80
2023-04-11T20:58:31.456Z,0.80
2023-04-11T21:00:59.192Z,0.85
2023-04-11T21:03:30.126Z,0.98
2023-04-11T21:05:57.151Z,1.08
2023-04-11T21:08:23.969Z,1.08
2023-04-11T21:10:50.922Z,0.80
2023-04-11T21:13:17.694Z,0.80
2023-04-11T21:15:44.476Z,0.80
2023-04-11T21:18:11.344Z,1.20
2023-04-11T21:20:40.313Z,0.75
2023-04-11T21:23:07.167Z,0.90
2023-04-11T21:25:36.212Z,0.70
2023-04-11T21:28:03.221Z,0.93
2023-04-11T21:30:30.506Z,1.10
2023-04-11T21:32:57.389Z,0.95
2023-04-11T21:35:24.319Z,0.68
2023-04-11T21:37:51.161Z,0.95
2023-04-11T21:40:18.067Z,1.02
2023-04-11T21:42:44.868Z,0.80
2023-04-11T21:45:11.692Z,0.75
2023-04-11T21:47:38.610Z,0.80
2023-04-11T21:50:05.992Z,0.90
2023-04-11T21:52:32.767Z,1.02
2023-04-11T21:54:59.568Z,0.73
2023-04-11T21:57:26.949Z,0.80
2023-04-11T22:02:20.893Z,0.80
2023-04-11T22:05:04.003Z,0.70
2023-04-11T22:07:46.143Z,0.80
2023-04-11T22:10:13.145Z,0.68
2023-04-11T22:12:41.622Z,0.80
2023-04-11T22:15:10.858Z,0.77
2023-04-11T22:17:38.243Z,0.77
2023-04-11T22:22:36.280Z,0.70
2023-04-11T22:25:03.186Z,0.82
2023-04-11T22:27:29.964Z,0.90
2023-04-11T22:29:56.718Z,1.10
2023-04-11T22:32:23.833Z,1.05
2023-04-11T22:34:50.658Z,0.60
2023-04-11T22:37:17.553Z,0.68
2023-04-11T22:39:44.280Z,0.70
2023-04-11T22:42:11.589Z,0.90
2023-04-11T22:44:38.421Z,0.70
2023-04-11T22:47:13.366Z,0.90
2023-04-11T22:49:40.366Z,0.70
2023-04-11T22:52:14.972Z,1.00
2023-04-11T22:54:42.851Z,0.60
2023-04-11T22:57:10.222Z,0.60
2023-04-11T22:59:36.982Z,0.75
2023-04-11T23:02:03.859Z,0.65
2023-04-11T23:04:32.004Z,0.88
2023-04-11T23:06:59.083Z,0.75
2023-04-11T23:09:26.505Z,0.60
2023-04-11T23:11:53.376Z,0.82
2023-04-11T23:14:21.103Z,0.60
2023-04-11T23:16:48.669Z,0.82
2023-04-11T23:19:15.578Z,0.90
2023-04-11T23:21:42.902Z,0.80
2023-04-11T23:24:09.806Z,0.85
2023-04-11T23:26:37.320Z,0.82
2023-04-11T23:31:33.807Z,0.70
2023-04-11T23:34:00.998Z,1.00
2023-04-11T23:38:55.199Z,0.73
2023-04-11T23:41:22.061Z,0.70
2023-04-11T23:43:48.857Z,0.70
2023-04-11T23:46:17.845Z,0.80
2023-04-11T23:48:46.705Z,0.73
2023-04-11T23:51:13.725Z,0.57
2023-04-11T23:53:41.015Z,0.80
2023-04-11T23:56:08.966Z,0.90
2023-04-11T23:58:35.945Z,0.63
